createdAt,value
2023-05-22T00:01:49.077Z,17.42
2023-05-22T00:04:26.800Z,19.30
2023-05-22T00:06:56.160Z,17.38
2023-05-22T00:09:26.743Z,23.83
2023-05-22T00:14:47.419Z,17.00
2023-05-22T00:17:19.029Z,19.48
2023-05-22T00:19:48.445Z,23.98
2023-05-22T00:22:19.266Z,18.83
2023-05-22T00:24:48.708Z,27.67
2023-05-22T00:27:19.592Z,33.58
2023-05-22T00:29:54.124Z,36.17
2023-05-22T00:35:01.166Z,26.08
2023-05-22T00:37:30.734Z,24.70
2023-05-22T00:40:13.998Z,26.85
2023-05-22T00:42:45.322Z,24.25
2023-05-22T00:45:20.012Z,25.55
2023-05-22T00:47:51.436Z,19.35
2023-05-22T00:50:22.486Z,24.15
2023-05-22T00:52:51.745Z,24.33
2023-05-22T00:58:12.608Z,20.08
2023-05-22T01:00:47.703Z,24.27
2023-05-22T01:03:25.564Z,24.00
2023-05-22T01:05:55.481Z,25.65
2023-05-22T01:08:25.802Z,26.23
2023-05-22T01:11:04.023Z,23.73
2023-05-22T01:13:44.966Z,28.77
2023-05-22T01:16:22.800Z,30.98
2023-05-22T01:19:03.763Z,24.33
2023-05-22T01:21:45.820Z,20.15
2023-05-22T01:24:53.958Z,36.88
2023-05-22T01:28:18.067Z,37.47
2023-05-22T01:31:02.318Z,27.55
2023-05-22T01:33:36.112Z,49.83
2023-05-22T01:36:19.733Z,46.95
2023-05-22T01:38:54.877Z,46.30
2023-05-22T01:41:25.572Z,47.67
2023-05-22T01:43:55.282Z,61.85
2023-05-22T01:46:27.623Z,56.67
2023-05-22T01:49:02.993Z,55.50
2023-05-22T01:51:41.658Z,54.60
2023-05-22T01:54:17.995Z,56.33
2023-05-22T01:56:54.560Z,50.92
2023-05-22T01:59:37.779Z,53.63
2023-05-22T02:02:12.012Z,47.97
2023-05-22T02:04:46.858Z,37.25
2023-05-22T02:07:20.427Z,41.42
2023-05-22T02:09:52.879Z,42.10
2023-05-22T02:12:23.478Z,48.67
2023-05-22T02:15:00.056Z,41.83
2023-05-22T02:17:33.982Z,39.42
2023-05-22T02:20:14.125Z,42.72
2023-05-22T02:22:46.937Z,44.65
2023-05-22T02:25:22.819Z,47.53
2023-05-22T02:27:53.132Z,45.33
2023-05-22T02:30:23.443Z,39.78
2023-05-22T02:32:57.989Z,39.85
2023-05-22T02:35:27.481Z,38.85
2023-05-22T02:37:57.129Z,38.42
2023-05-22T02:40:26.836Z,43.05
2023-05-22T02:42:56.176Z,38.65
2023-05-22T02:45:25.517Z,42.25
2023-05-22T02:48:01.937Z,39.72
2023-05-22T02:50:31.685Z,37.55
2023-05-22T02:53:01.149Z,38.85
2023-05-22T02:55:30.602Z,40.28
2023-05-22T02:58:05.951Z,36.63
2023-05-22T03:00:35.773Z,35.65
2023-05-22T03:08:17.912Z,33.08
2023-05-22T03:10:47.258Z,32.80
2023-05-22T03:13:21.565Z,34.58
2023-05-22T03:15:51.215Z,35.10
2023-05-22T03:18:25.928Z,31.00
2023-05-22T03:20:57.481Z,32.85
2023-05-22T03:23:32.446Z,32.50
2023-05-22T03:26:01.797Z,34.97
2023-05-22T03:28:35.736Z,33.33
2023-05-22T03:31:05.534Z,33.72
2023-05-22T03:33:45.177Z,34.47
2023-05-22T03:36:25.597Z,32.92
2023-05-22T03:41:31.834Z,29.42
2023-05-22T03:44:02.866Z,35.40
2023-05-22T03:46:37.334Z,30.02
2023-05-22T03:49:10.258Z,33.33
2023-05-22T03:51:39.793Z,35.83
2023-05-22T03:54:09.123Z,30.63
2023-05-22T03:56:39.980Z,29.77
2023-05-22T03:59:09.628Z,34.33
2023-05-22T04:01:39.477Z,26.52
2023-05-22T04:04:11.902Z,24.10
2023-05-22T04:06:42.694Z,23.88
2023-05-22T04:09:13.582Z,30.27
2023-05-22T04:11:43.008Z,31.97
2023-05-22T04:14:12.449Z,27.67
2023-05-22T04:16:41.726Z,26.88
2023-05-22T04:19:13.642Z,23.73
2023-05-22T04:21:49.002Z,28.60
2023-05-22T04:24:22.672Z,26.40
2023-05-22T04:26:52.508Z,27.02
2023-05-22T04:29:53.317Z,25.20
2023-05-22T04:32:23.465Z,26.77
2023-05-22T04:34:54.706Z,21.75
2023-05-22T04:37:35.831Z,24.88
2023-05-22T04:40:11.318Z,24.88
2023-05-22T04:42:47.097Z,24.55
2023-05-22T04:45:19.147Z,24.33
2023-05-22T04:48:16.666Z,27.58
2023-05-22T04:50:57.563Z,22.10
2023-05-22T04:53:33.230Z,25.27
2023-05-22T04:56:02.678Z,22.52
2023-05-22T04:58:32.540Z,22.88
2023-05-22T05:01:03.140Z,22.52
2023-05-22T05:03:44.627Z,26.88
2023-05-22T05:06:16.853Z,24.35
2023-05-22T05:08:47.735Z,24.27
2023-05-22T05:11:27.445Z,25.02
2023-05-22T05:14:08.035Z,22.52
2023-05-22T05:19:12.038Z,21.20
2023-05-22T05:21:44.397Z,20.90
2023-05-22T05:24:19.962Z,21.63
2023-05-22T05:27:03.099Z,19.30
2023-05-22T05:29:32.779Z,20.60
2023-05-22T05:32:08.866Z,19.42
2023-05-22T05:34:58.510Z,20.20
2023-05-22T05:37:56.217Z,18.70
2023-05-22T05:40:27.204Z,21.15
2023-05-22T05:43:03.312Z,21.38
2023-05-22T05:45:33.290Z,21.73
2023-05-22T05:48:02.850Z,19.42
2023-05-22T05:50:32.946Z,23.15
2023-05-22T05:53:10.918Z,21.85
2023-05-22T05:55:41.875Z,21.58
2023-05-22T05:58:17.830Z,19.77
2023-05-22T06:01:11.713Z,20.75
2023-05-22T06:06:26.486Z,19.05
2023-05-22T06:09:16.790Z,23.05
2023-05-22T06:12:12.301Z,19.63
2023-05-22T06:14:42.983Z,18.10
2023-05-22T06:17:12.538Z,19.55
2023-05-22T06:19:44.302Z,18.80
2023-05-22T06:22:15.459Z,16.42
2023-05-22T06:27:28.298Z,16.27
2023-05-22T06:29:57.947Z,17.58
2023-05-22T06:32:40.934Z,15.68
2023-05-22T06:35:12.469Z,15.52
2023-05-22T06:37:43.430Z,14.73
2023-05-22T06:40:15.669Z,14.73
2023-05-22T06:42:59.841Z,17.23
2023-05-22T06:45:37.297Z,16.02
2023-05-22T06:48:27.639Z,15.85
2023-05-22T06:51:23.163Z,15.95
2023-05-22T06:53:56.534Z,15.50
2023-05-22T06:56:38.326Z,15.43
2023-05-22T06:59:12.907Z,14.18
2023-05-22T07:05:18.848Z,15.50
2023-05-22T07:08:03.219Z,16.52
2023-05-22T07:10:32.782Z,14.15
2023-05-22T07:13:04.511Z,15.13
2023-05-22T07:15:35.733Z,18.15
2023-05-22T07:18:09.383Z,13.82
2023-05-22T07:20:41.628Z,15.55
2023-05-22T07:23:18.404Z,14.48
2023-05-22T07:25:48.197Z,14.45
2023-05-22T07:31:04.055Z,20.65
2023-05-22T07:33:34.252Z,20.67
2023-05-22T07:36:04.340Z,19.08
2023-05-22T07:38:33.747Z,20.75
2023-05-22T07:41:09.818Z,19.85
2023-05-22T07:43:41.733Z,16.20
2023-05-22T07:46:13.743Z,13.55
2023-05-22T07:48:53.793Z,15.75
2023-05-22T07:51:23.286Z,14.35
2023-05-22T07:53:55.475Z,14.55
2023-05-22T07:56:39.318Z,12.10
2023-05-22T07:59:19.348Z,8.93
2023-05-22T08:01:48.907Z,11.98
2023-05-22T08:04:19.169Z,12.43
2023-05-22T08:06:54.735Z,10.68
2023-05-22T08:09:29.169Z,12.10
2023-05-22T08:11:58.535Z,6.82
2023-05-22T08:14:34.885Z,7.97
2023-05-22T08:17:11.600Z,8.60
2023-05-22T08:19:41.462Z,7.70
2023-05-22T08:22:10.968Z,9.55
2023-05-22T08:24:40.714Z,8.73
2023-05-22T08:27:10.706Z,8.05
2023-05-22T08:29:42.088Z,8.90
2023-05-22T08:32:11.625Z,8.80
2023-05-22T08:37:27.222Z,10.15
2023-05-22T08:39:56.637Z,7.63
2023-05-22T08:42:26.553Z,9.15
2023-05-22T08:45:03.812Z,8.18
2023-05-22T08:47:43.896Z,9.50
2023-05-22T08:52:52.753Z,10.27
2023-05-22T08:55:22.582Z,9.93
2023-05-22T08:57:53.533Z,11.27
2023-05-22T09:00:25.562Z,8.43
2023-05-22T09:02:55.528Z,8.55
2023-05-22T09:05:26.429Z,7.70
2023-05-22T09:08:02.607Z,10.35
2023-05-22T09:10:38.659Z,9.18
2023-05-22T09:13:10.558Z,10.77
2023-05-22T09:15:42.170Z,10.73
2023-05-22T09:20:41.606Z,10.55
2023-05-22T09:23:17.455Z,8.07
2023-05-22T09:25:47.881Z,7.45
2023-05-22T09:28:22.289Z,9.23
2023-05-22T09:30:54.627Z,7.80
2023-05-22T09:33:27.056Z,7.68
2023-05-22T09:35:56.756Z,8.98
2023-05-22T09:38:30.007Z,8.23
2023-05-22T09:40:59.567Z,11.82
2023-05-22T09:43:28.880Z,8.07
2023-05-22T09:46:04.110Z,8.80
2023-05-22T09:48:38.825Z,8.68
2023-05-22T09:51:10.009Z,9.35
2023-05-22T09:53:44.936Z,10.23
2023-05-22T09:56:34.819Z,8.80
2023-05-22T09:59:10.176Z,8.90
2023-05-22T10:01:43.615Z,8.48
2023-05-22T10:04:15.812Z,9.88
2023-05-22T10:06:52.133Z,7.93
2023-05-22T10:09:25.366Z,7.63
2023-05-22T10:14:50.549Z,7.90
2023-05-22T10:17:22.491Z,14.82
2023-05-22T10:22:36.340Z,10.05
2023-05-22T10:25:09.111Z,9.05
2023-05-22T10:27:41.054Z,8.05
2023-05-22T10:30:37.087Z,8.90
2023-05-22T10:33:38.844Z,10.98
2023-05-22T10:36:12.654Z,8.50
2023-05-22T10:39:05.850Z,9.43
2023-05-22T10:41:36.557Z,10.90
2023-05-22T10:47:12.957Z,8.90
2023-05-22T10:49:46.534Z,11.15
2023-05-22T10:52:18.631Z,10.48
2023-05-22T10:54:53.210Z,11.63
2023-05-22T10:57:41.728Z,10.52
2023-05-22T11:00:14.388Z,13.13
2023-05-22T11:02:47.652Z,11.82
2023-05-22T11:08:54.507Z,17.02
2023-05-22T11:11:47.146Z,15.75
2023-05-22T11:14:20.030Z,9.43
2023-05-22T11:16:49.554Z,12.38
2023-05-22T11:19:23.367Z,12.63
2023-05-22T11:22:15.911Z,15.65
2023-05-22T11:24:45.380Z,11.30
2023-05-22T11:27:15.125Z,9.38
2023-05-22T11:29:46.513Z,14.18
2023-05-22T11:32:20.565Z,10.10
2023-05-22T11:34:56.288Z,13.63
2023-05-22T11:37:27.668Z,12.63
2023-05-22T11:40:08.429Z,10.20
2023-05-22T11:42:43.042Z,11.68
2023-05-22T11:45:13.754Z,12.13
2023-05-22T11:47:43.451Z,13.50
2023-05-22T11:50:41.655Z,10.10
2023-05-22T11:53:14.116Z,11.98
2023-05-22T11:58:13.633Z,12.68
2023-05-22T12:00:48.153Z,11.00
2023-05-22T12:03:21.604Z,12.27
2023-05-22T12:05:52.977Z,16.73
2023-05-22T12:08:24.601Z,10.77
2023-05-22T12:11:09.517Z,10.07
2023-05-22T12:13:38.949Z,9.13
2023-05-22T12:16:21.402Z,9.45
2023-05-22T12:18:55.365Z,10.80
2023-05-22T12:21:43.630Z,13.32
2023-05-22T12:24:15.267Z,13.77
2023-05-22T12:26:52.618Z,13.25
2023-05-22T12:29:37.578Z,14.23
2023-05-22T12:32:14.299Z,13.45
2023-05-22T12:34:47.944Z,15.23
2023-05-22T12:37:21.799Z,11.90
2023-05-22T12:40:05.620Z,12.63
2023-05-22T12:42:35.570Z,14.63
2023-05-22T12:51:26.610Z,10.55
2023-05-22T12:53:56.021Z,11.13
2023-05-22T12:56:25.642Z,9.65
2023-05-22T12:59:06.248Z,15.93
2023-05-22T13:01:35.963Z,14.35
2023-05-22T13:04:05.431Z,9.45
2023-05-22T13:06:43.333Z,11.32
2023-05-22T13:09:16.507Z,11.15
2023-05-22T13:11:45.932Z,10.52
2023-05-22T13:14:15.350Z,9.50
2023-05-22T13:16:54.762Z,10.18
2023-05-22T13:19:24.223Z,12.45
2023-05-22T13:22:07.179Z,10.13
2023-05-22T13:24:36.723Z,10.45
2023-05-22T13:27:07.115Z,14.75
2023-05-22T13:32:34.999Z,11.20
2023-05-22T13:35:10.781Z,9.73
2023-05-22T13:37:47.736Z,15.10
2023-05-22T13:40:17.982Z,9.70
2023-05-22T13:42:57.503Z,13.13
2023-05-22T13:45:27.372Z,11.43
2023-05-22T13:47:56.980Z,16.30
2023-05-22T13:50:31.505Z,10.32
2023-05-22T13:53:03.055Z,13.27
2023-05-22T13:55:32.472Z,11.52
2023-05-22T13:58:02.126Z,9.85
2023-05-22T14:00:46.617Z,11.30
2023-05-22T14:03:18.220Z,8.13
2023-05-22T14:05:47.866Z,11.03
2023-05-22T14:08:19.064Z,10.30
2023-05-22T14:13:24.170Z,9.18
2023-05-22T14:15:53.499Z,7.45
2023-05-22T14:18:23.462Z,7.03
2023-05-22T14:20:52.763Z,11.63
2023-05-22T14:23:24.763Z,9.80
2023-05-22T14:25:54.357Z,10.02
2023-05-22T14:28:24.184Z,9.38
2023-05-22T14:30:53.619Z,9.43
2023-05-22T14:33:28.007Z,6.90
2023-05-22T14:36:02.315Z,5.72
2023-05-22T14:38:35.847Z,7.43
2023-05-22T14:41:10.833Z,7.45
2023-05-22T14:43:42.509Z,14.65
2023-05-22T14:48:40.921Z,5.90
2023-05-22T14:51:10.261Z,7.57
2023-05-22T14:53:41.840Z,10.60
2023-05-22T14:58:40.253Z,15.80
2023-05-22T15:01:10.133Z,13.45
2023-05-22T15:03:39.903Z,10.88
2023-05-22T15:06:09.572Z,16.02
2023-05-22T15:08:41.286Z,6.63
2023-05-22T15:13:39.531Z,9.00
2023-05-22T15:16:08.913Z,11.75
2023-05-22T15:21:13.215Z,10.73
2023-05-22T15:23:44.567Z,11.55
2023-05-22T15:26:14.327Z,12.30
2023-05-22T15:28:43.722Z,16.15
2023-05-22T15:33:48.367Z,11.60
2023-05-22T15:36:17.666Z,11.02
2023-05-22T15:38:55.808Z,11.98
2023-05-22T15:41:30.091Z,10.48
2023-05-22T15:44:06.168Z,11.65
2023-05-22T15:46:35.699Z,9.52
2023-05-22T15:49:05.047Z,11.40
2023-05-22T15:51:44.556Z,13.40
2023-05-22T15:54:16.118Z,10.65
2023-05-22T15:59:26.122Z,15.65
2023-05-22T16:01:55.727Z,12.82
2023-05-22T16:04:25.115Z,13.68
2023-05-22T16:09:36.029Z,11.35
2023-05-22T16:12:06.362Z,8.57
2023-05-22T16:14:35.783Z,6.95
2023-05-22T16:17:10.325Z,10.75
2023-05-22T16:19:39.737Z,14.63
2023-05-22T16:22:17.233Z,8.52
2023-05-22T16:24:48.490Z,5.43
2023-05-22T16:30:04.858Z,6.95
2023-05-22T16:32:39.876Z,11.27
2023-05-22T16:35:10.888Z,8.43
2023-05-22T16:37:45.556Z,9.40
2023-05-22T16:40:17.342Z,9.07
2023-05-22T16:42:47.588Z,8.98
2023-05-22T16:45:16.950Z,12.18
2023-05-22T16:48:01.212Z,12.00
2023-05-22T16:50:30.921Z,8.32
2023-05-22T16:53:00.821Z,10.82
2023-05-22T16:55:32.625Z,12.32
2023-05-22T16:58:02.908Z,14.82
2023-05-22T17:00:32.387Z,10.18
2023-05-22T17:03:02.846Z,8.35
2023-05-22T17:05:37.659Z,11.18
2023-05-22T17:08:07.570Z,9.15
2023-05-22T17:10:39.104Z,7.35
2023-05-22T17:13:20.413Z,8.18
2023-05-22T17:15:50.381Z,11.13
2023-05-22T17:18:21.459Z,7.38
2023-05-22T17:20:51.539Z,8.05
2023-05-22T17:23:21.153Z,11.55
2023-05-22T17:25:52.818Z,12.98
2023-05-22T17:28:22.261Z,12.50
2023-05-22T17:30:51.558Z,15.05
2023-05-22T17:33:21.642Z,13.15
2023-05-22T17:35:52.312Z,8.95
2023-05-22T17:38:26.768Z,10.80
2023-05-22T17:41:00.455Z,8.40
2023-05-22T17:43:34.670Z,10.25
2023-05-22T17:46:09.486Z,10.13
2023-05-22T17:48:40.595Z,14.82
2023-05-22T17:51:10.223Z,12.18
2023-05-22T17:53:58.813Z,15.32
2023-05-22T17:56:36.340Z,13.32
2023-05-22T17:59:05.802Z,18.85
2023-05-22T18:01:35.492Z,12.63
2023-05-22T18:04:05.226Z,13.35
2023-05-22T18:06:34.874Z,15.73
2023-05-22T18:09:05.247Z,12.30
2023-05-22T18:11:36.482Z,15.50
2023-05-22T18:14:06.228Z,15.65
2023-05-22T18:16:40.776Z,10.73
2023-05-22T18:19:11.190Z,11.13
2023-05-22T18:21:55.397Z,12.13
2023-05-22T18:24:25.773Z,11.18
2023-05-22T18:26:57.353Z,10.38
2023-05-22T18:31:56.211Z,9.75
2023-05-22T18:34:25.897Z,10.27
2023-05-22T18:36:57.072Z,15.23
2023-05-22T18:39:26.536Z,13.70
2023-05-22T18:41:58.450Z,9.07
2023-05-22T18:44:28.258Z,11.00
2023-05-22T18:46:57.626Z,12.02
2023-05-22T18:49:27.195Z,12.00
2023-05-22T18:51:56.764Z,11.45
2023-05-22T18:54:26.775Z,8.05
2023-05-22T18:56:58.348Z,16.25
2023-05-22T19:02:30.021Z,13.38
2023-05-22T19:05:05.045Z,9.18
2023-05-22T19:07:35.191Z,13.55
2023-05-22T19:10:07.117Z,12.98
2023-05-22T19:12:39.975Z,14.75
2023-05-22T19:15:10.740Z,12.50
2023-05-22T19:17:58.570Z,10.90
2023-05-22T19:20:28.224Z,8.38
2023-05-22T19:22:58.246Z,13.10
2023-05-22T19:25:28.029Z,11.07
2023-05-22T19:28:04.931Z,11.57
2023-05-22T19:33:11.603Z,16.25
2023-05-22T19:35:41.260Z,12.70
2023-05-22T19:38:16.293Z,15.43
2023-05-22T19:40:46.022Z,17.23
2023-05-22T19:43:17.746Z,17.30
2023-05-22T19:48:21.522Z,13.30
2023-05-22T19:50:50.976Z,11.98
2023-05-22T19:53:20.589Z,12.02
2023-05-22T19:55:50.473Z,12.35
2023-05-22T19:58:21.905Z,10.40
2023-05-22T20:00:51.379Z,14.45
2023-05-22T20:03:20.962Z,12.45
2023-05-22T20:05:59.394Z,13.32
2023-05-22T20:08:28.959Z,16.92
2023-05-22T20:10:58.438Z,13.18
2023-05-22T20:13:35.839Z,11.52
2023-05-22T20:16:11.296Z,11.80
2023-05-22T20:18:41.306Z,14.95
2023-05-22T20:21:11.487Z,7.75
2023-05-22T20:23:42.339Z,12.10
2023-05-22T20:26:11.826Z,13.20
2023-05-22T20:28:48.222Z,17.33
2023-05-22T20:31:17.893Z,11.88
2023-05-22T20:33:47.833Z,10.63
2023-05-22T20:36:18.434Z,7.63
2023-05-22T20:38:48.176Z,11.45
2023-05-22T20:41:24.029Z,11.63
2023-05-22T20:43:55.860Z,8.73
2023-05-22T20:49:00.159Z,8.10
2023-05-22T20:51:32.165Z,7.85
2023-05-22T20:54:06.689Z,8.50
2023-05-22T20:56:35.981Z,14.52
2023-05-22T20:59:13.921Z,9.55
2023-05-22T21:01:43.378Z,12.75
2023-05-22T21:04:12.783Z,11.20
2023-05-22T21:06:47.065Z,8.80
2023-05-22T21:09:21.450Z,13.70
2023-05-22T21:11:50.801Z,10.88
2023-05-22T21:14:22.184Z,11.38
2023-05-22T21:16:51.949Z,11.05
2023-05-22T21:19:21.394Z,11.13
2023-05-22T21:22:00.940Z,10.25
2023-05-22T21:24:42.278Z,10.45
2023-05-22T21:27:11.885Z,16.27
2023-05-22T21:29:57.957Z,11.55
2023-05-22T21:32:27.444Z,11.23
2023-05-22T21:34:56.834Z,11.30
2023-05-22T21:37:33.552Z,10.57
2023-05-22T21:40:03.714Z,9.52
2023-05-22T21:42:45.908Z,8.13
2023-05-22T21:45:23.880Z,11.35
2023-05-22T21:50:34.750Z,14.50
2023-05-22T21:53:04.097Z,13.07
2023-05-22T21:55:35.639Z,11.95
2023-05-22T21:58:05.185Z,10.95
2023-05-22T22:00:36.896Z,11.75
2023-05-22T22:05:36.879Z,11.82
2023-05-22T22:08:11.253Z,13.80
2023-05-22T22:10:40.923Z,13.80
2023-05-22T22:13:10.815Z,11.52
2023-05-22T22:15:42.104Z,11.20
2023-05-22T22:18:16.719Z,10.85
2023-05-22T22:20:48.076Z,11.05
2023-05-22T22:23:17.749Z,14.60
2023-05-22T22:25:47.228Z,13.10
2023-05-22T22:30:54.590Z,12.32
2023-05-22T22:33:24.493Z,14.30
2023-05-22T22:35:59.613Z,17.25
2023-05-22T22:38:32.409Z,15.23
2023-05-22T22:41:03.898Z,15.07
2023-05-22T22:43:33.392Z,13.80
2023-05-22T22:46:04.590Z,11.23
2023-05-22T22:48:34.142Z,11.38
2023-05-22T22:51:04.678Z,15.38
2023-05-22T22:53:33.894Z,15.50
2023-05-22T22:56:03.706Z,15.23
2023-05-22T22:58:40.441Z,14.70
2023-05-22T23:01:12.088Z,16.75
2023-05-22T23:03:41.598Z,14.73
2023-05-22T23:06:10.974Z,16.70
2023-05-22T23:08:40.244Z,21.00
2023-05-22T23:13:44.939Z,14.88
2023-05-22T23:16:16.264Z,17.05
2023-05-22T23:21:21.028Z,21.67
2023-05-22T23:23:50.469Z,19.52
2023-05-22T23:26:20.074Z,18.77
2023-05-22T23:28:49.322Z,21.88
2023-05-22T23:31:20.700Z,20.38
2023-05-22T23:36:30.682Z,25.20
2023-05-22T23:39:00.238Z,22.10
2023-05-22T23:41:29.591Z,19.13
2023-05-22T23:44:09.370Z,20.05
2023-05-22T23:46:41.032Z,16.85
2023-05-22T23:51:39.493Z,16.13
2023-05-22T23:54:09.362Z,18.50
2023-05-22T23:56:38.677Z,16.98
2023-05-22T23:59:12.987Z,19.65
